Terminal Aerodrome Forecast
Issued by NWS Wakefield, VA

Home | Current Version | Previous Version | Text Only | Print | Product List | Glossary On
Versions: 1 2 3 4 5 6 7 8 9 10 11 12
000
FTUS41 KAKQ 192300
TAFECG
TAF
KECG 192340Z 2000/2024 06009KT P6SM SCT250
     FM200600 05005KT P6SM SKC
     FM201200 06008KT P6SM SCT020 BKN050
     FM201500 05010KT P6SM BKN050
     FM201900 07008KT P6SM BKN050=

USA.gov is the U.S. government's official web portal to all federal, state and local government web resources and services.